createdAt,value
2022-09-28T00:01:07.750Z,2.03
2022-09-28T00:03:37.075Z,1.90
2022-09-28T00:06:06.855Z,2.20
2022-09-28T00:08:36.073Z,1.90
2022-09-28T00:11:05.848Z,1.80
2022-09-28T00:13:34.139Z,1.90
2022-09-28T00:16:04.273Z,1.80
2022-09-28T00:18:32.707Z,1.60
2022-09-28T00:21:04.297Z,1.97
2022-09-28T00:23:32.465Z,1.30
2022-09-28T00:26:03.831Z,1.37
2022-09-28T00:28:32.043Z,1.30
2022-09-28T00:31:00.372Z,1.33
2022-09-28T00:33:29.485Z,1.40
2022-09-28T00:35:58.660Z,1.30
2022-09-28T00:38:31.023Z,1.50
2022-09-28T00:40:59.609Z,1.70
2022-09-28T00:43:28.965Z,1.90
2022-09-28T00:46:01.181Z,1.47
2022-09-28T00:48:32.401Z,1.60
2022-09-28T00:51:02.515Z,1.93
2022-09-28T00:53:34.731Z,1.50
2022-09-28T00:56:07.416Z,1.47
2022-09-28T00:58:42.834Z,1.60
2022-09-28T01:01:11.053Z,1.27
2022-09-28T01:03:41.248Z,1.57
2022-09-28T01:06:10.383Z,1.40
2022-09-28T01:08:41.187Z,1.80
2022-09-28T01:11:09.577Z,1.87
2022-09-28T01:13:38.655Z,1.50
2022-09-28T01:16:14.897Z,1.90
2022-09-28T01:18:54.288Z,1.60
2022-09-28T01:21:23.478Z,1.43
2022-09-28T01:24:15.120Z,1.40
2022-09-28T01:27:01.558Z,1.63
2022-09-28T01:29:44.596Z,1.50
2022-09-28T01:32:23.573Z,1.30
2022-09-28T01:34:58.571Z,1.50
2022-09-28T01:37:34.748Z,1.90
2022-09-28T01:40:05.887Z,1.90
2022-09-28T01:42:38.779Z,1.80
2022-09-28T01:45:11.463Z,1.87
2022-09-28T01:47:41.103Z,1.70
2022-09-28T01:50:14.674Z,1.50
2022-09-28T01:52:48.824Z,1.40
2022-09-28T01:55:25.023Z,1.20
2022-09-28T01:57:57.689Z,1.57
2022-09-28T02:00:27.533Z,1.30
2022-09-28T02:03:01.386Z,1.50
2022-09-28T02:05:41.301Z,1.40
2022-09-28T02:08:14.270Z,1.60
2022-09-28T02:10:46.950Z,1.40
2022-09-28T02:13:19.696Z,1.33
2022-09-28T02:15:52.517Z,1.43
2022-09-28T02:18:20.624Z,1.20
2022-09-28T02:20:55.561Z,1.20
2022-09-28T02:23:24.939Z,1.40
2022-09-28T02:26:01.353Z,1.20
2022-09-28T02:28:31.672Z,1.00
2022-09-28T02:30:59.599Z,1.50
2022-09-28T02:33:32.145Z,2.00
2022-09-28T02:36:01.665Z,1.90
2022-09-28T02:38:31.809Z,1.50
2022-09-28T02:41:06.903Z,1.97
2022-09-28T02:43:51.003Z,1.20
2022-09-28T02:46:29.577Z,1.30
2022-09-28T02:49:23.625Z,1.47
2022-09-28T02:52:21.198Z,1.73
2022-09-28T02:55:03.422Z,1.30
2022-09-28T02:57:43.712Z,1.70
2022-09-28T03:00:18.664Z,1.23
2022-09-28T03:02:56.779Z,1.13
2022-09-28T03:05:33.140Z,1.37
2022-09-28T03:08:04.138Z,1.43
2022-09-28T03:10:38.250Z,1.20
2022-09-28T03:13:07.100Z,1.20
2022-09-28T03:15:38.049Z,1.30
2022-09-28T03:18:06.094Z,1.10
2022-09-28T03:20:34.767Z,1.10
2022-09-28T03:25:51.215Z,1.00
2022-09-28T03:28:19.473Z,1.10
2022-09-28T03:30:50.322Z,1.47
2022-09-28T03:33:19.714Z,1.07
2022-09-28T03:35:48.768Z,0.90
2022-09-28T03:38:18.184Z,1.20
2022-09-28T03:40:54.010Z,1.37
2022-09-28T03:43:22.191Z,1.30
2022-09-28T03:45:55.859Z,1.03
2022-09-28T03:48:28.685Z,1.20
2022-09-28T03:50:59.237Z,1.23
2022-09-28T03:53:27.251Z,1.20
2022-09-28T03:55:55.337Z,1.37
2022-09-28T03:58:23.931Z,1.40
2022-09-28T04:00:53.068Z,1.70
2022-09-28T04:03:22.389Z,1.20
2022-09-28T04:05:50.901Z,1.50
2022-09-28T04:08:18.936Z,1.10
2022-09-28T04:10:48.169Z,1.10
2022-09-28T04:13:16.266Z,1.13
2022-09-28T04:15:44.548Z,1.03
2022-09-28T04:18:13.557Z,1.10
2022-09-28T04:21:06.646Z,1.37
2022-09-28T04:23:40.070Z,1.20
2022-09-28T04:26:09.544Z,1.10
2022-09-28T04:28:54.970Z,1.17
2022-09-28T04:31:24.614Z,1.17
2022-09-28T04:33:53.606Z,0.90
2022-09-28T04:36:22.814Z,1.47
2022-09-28T04:38:53.503Z,0.97
2022-09-28T04:41:23.997Z,1.17
2022-09-28T04:43:52.317Z,1.20
2022-09-28T04:46:21.058Z,1.03
2022-09-28T04:49:04.396Z,1.10
2022-09-28T04:51:50.612Z,1.17
2022-09-28T04:54:18.652Z,1.40
2022-09-28T04:56:46.776Z,1.20
2022-09-28T04:59:14.794Z,1.20
2022-09-28T05:01:43.994Z,1.27
2022-09-28T05:04:31.089Z,1.20
2022-09-28T05:07:11.894Z,1.10
2022-09-28T05:09:40.073Z,1.10
2022-09-28T05:12:09.590Z,1.10
2022-09-28T05:14:38.692Z,0.93
2022-09-28T05:17:06.987Z,1.07
2022-09-28T05:19:45.711Z,1.00
2022-09-28T05:22:15.831Z,0.90
2022-09-28T05:24:47.351Z,1.00
2022-09-28T05:27:15.836Z,1.30
2022-09-28T05:29:46.750Z,1.33
2022-09-28T05:32:33.196Z,1.10
2022-09-28T05:35:12.901Z,0.73
2022-09-28T05:37:48.335Z,0.90
2022-09-28T05:40:16.341Z,1.10
2022-09-28T05:42:44.251Z,1.00
2022-09-28T05:45:14.216Z,1.17
2022-09-28T05:47:46.053Z,0.80
2022-09-28T05:50:16.953Z,0.70
2022-09-28T05:52:45.060Z,0.80
2022-09-28T05:55:15.484Z,0.90
2022-09-28T05:57:43.345Z,0.83
2022-09-28T06:00:12.886Z,1.23
2022-09-28T06:02:42.478Z,1.20
2022-09-28T06:05:12.971Z,1.30
2022-09-28T06:07:41.218Z,1.60
2022-09-28T06:10:09.889Z,1.00
2022-09-28T06:12:44.885Z,1.17
2022-09-28T06:15:16.323Z,1.00
2022-09-28T06:17:45.531Z,1.20
2022-09-28T06:20:35.029Z,1.30
2022-09-28T06:23:20.375Z,1.57
2022-09-28T06:25:48.234Z,1.20
2022-09-28T06:28:18.527Z,1.50
2022-09-28T06:30:48.156Z,1.23
2022-09-28T06:33:18.551Z,1.20
2022-09-28T06:35:47.160Z,1.57
2022-09-28T06:38:15.054Z,1.30
2022-09-28T06:40:42.984Z,1.53
2022-09-28T06:43:14.671Z,1.50
2022-09-28T06:46:03.278Z,1.63
2022-09-28T06:48:50.956Z,1.60
2022-09-28T06:51:47.823Z,1.30
2022-09-28T06:54:29.710Z,1.53
2022-09-28T06:57:10.419Z,1.63
2022-09-28T06:59:38.517Z,1.40
2022-09-28T07:02:09.664Z,1.23
2022-09-28T07:04:55.353Z,1.87
2022-09-28T07:07:38.780Z,1.27
2022-09-28T07:10:23.260Z,1.20
2022-09-28T07:13:27.741Z,1.30
2022-09-28T07:16:07.099Z,1.23
2022-09-28T07:18:36.562Z,1.50
2022-09-28T07:21:08.310Z,1.37
2022-09-28T07:23:48.652Z,1.50
2022-09-28T07:26:25.952Z,1.47
2022-09-28T07:29:02.887Z,1.60
2022-09-28T07:31:51.128Z,1.40
2022-09-28T07:34:41.237Z,1.37
2022-09-28T07:37:16.304Z,1.60
2022-09-28T07:40:03.223Z,1.70
2022-09-28T07:42:33.175Z,1.33
2022-09-28T07:45:01.064Z,1.47
2022-09-28T07:47:34.575Z,1.50
2022-09-28T07:50:23.298Z,1.20
2022-09-28T07:52:58.112Z,1.37
2022-09-28T07:55:30.781Z,1.20
2022-09-28T07:58:17.095Z,1.20
2022-09-28T08:00:54.979Z,1.63
2022-09-28T08:03:22.963Z,1.40
2022-09-28T08:05:52.201Z,1.57
2022-09-28T08:08:20.284Z,1.50
2022-09-28T08:10:48.909Z,1.83
2022-09-28T08:13:27.034Z,1.07
2022-09-28T08:16:14.845Z,1.00
2022-09-28T08:18:54.071Z,1.43
2022-09-28T08:21:42.748Z,1.20
2022-09-28T08:24:10.803Z,1.10
2022-09-28T08:26:38.722Z,1.27
2022-09-28T08:29:08.017Z,1.07
2022-09-28T08:32:02.938Z,1.43
2022-09-28T08:34:37.701Z,1.30
2022-09-28T08:37:25.525Z,1.43
2022-09-28T08:40:25.440Z,1.30
2022-09-28T08:43:22.856Z,1.60
2022-09-28T08:46:27.165Z,1.30
2022-09-28T08:49:30.678Z,1.77
2022-09-28T08:52:23.357Z,1.87
2022-09-28T08:55:27.338Z,1.40
2022-09-28T08:58:02.988Z,1.90
2022-09-28T09:00:39.314Z,1.70
2022-09-28T09:03:13.380Z,1.53
2022-09-28T09:05:53.125Z,1.40
2022-09-28T09:08:49.999Z,1.50
2022-09-28T09:11:30.082Z,1.50
2022-09-28T09:14:36.761Z,1.73
2022-09-28T09:17:12.606Z,1.20
2022-09-28T09:20:21.372Z,1.60
2022-09-28T09:23:17.974Z,1.70
2022-09-28T09:25:50.349Z,1.80
2022-09-28T09:28:59.559Z,1.40
2022-09-28T09:31:50.981Z,1.63
2022-09-28T09:34:42.949Z,1.57
2022-09-28T09:38:07.029Z,1.20
2022-09-28T09:40:56.395Z,1.47
2022-09-28T09:44:04.796Z,1.37
2022-09-28T09:47:07.789Z,1.53
2022-09-28T09:50:05.429Z,1.57
2022-09-28T09:52:46.512Z,1.40
2022-09-28T09:55:19.257Z,1.20
2022-09-28T09:58:05.498Z,1.27
2022-09-28T10:00:44.947Z,1.23
2022-09-28T10:03:28.168Z,1.53
2022-09-28T10:06:06.677Z,1.37
2022-09-28T10:08:38.705Z,1.70
2022-09-28T10:11:12.677Z,1.13
2022-09-28T10:13:42.941Z,1.20
2022-09-28T10:16:32.983Z,1.27
2022-09-28T10:19:03.845Z,1.10
2022-09-28T10:21:51.948Z,0.90
2022-09-28T10:24:31.564Z,1.13
2022-09-28T10:27:05.302Z,1.30
2022-09-28T10:29:42.615Z,1.27
2022-09-28T10:32:22.988Z,1.27
2022-09-28T10:35:11.943Z,1.00
2022-09-28T10:37:52.193Z,0.90
2022-09-28T10:40:44.371Z,0.90
2022-09-28T10:43:21.626Z,1.20
2022-09-28T10:45:50.625Z,1.03
2022-09-28T10:48:22.376Z,0.97
2022-09-28T10:51:05.460Z,0.90
2022-09-28T10:53:36.986Z,1.33
2022-09-28T10:56:08.083Z,0.87
2022-09-28T10:58:40.444Z,1.00
2022-09-28T11:01:12.998Z,0.90
2022-09-28T11:03:51.750Z,1.53
2022-09-28T11:06:27.819Z,0.77
2022-09-28T11:08:59.369Z,1.17
2022-09-28T11:11:31.314Z,0.90
2022-09-28T11:14:04.711Z,1.00
2022-09-28T11:16:37.125Z,1.10
2022-09-28T11:19:25.367Z,0.80
2022-09-28T11:21:54.664Z,1.07
2022-09-28T11:24:29.889Z,0.70
2022-09-28T11:27:00.932Z,0.90
2022-09-28T11:29:38.030Z,1.10
2022-09-28T11:32:29.649Z,1.00
2022-09-28T11:35:19.785Z,0.93
2022-09-28T11:38:11.293Z,1.10
2022-09-28T11:41:10.867Z,0.80
2022-09-28T11:43:56.480Z,1.73
2022-09-28T11:46:33.318Z,1.30
2022-09-28T11:49:15.836Z,0.90
2022-09-28T11:51:47.211Z,0.90
2022-09-28T11:54:26.660Z,0.70
2022-09-28T11:56:54.908Z,1.07
2022-09-28T11:59:28.830Z,0.90
2022-09-28T12:01:59.419Z,1.30
2022-09-28T12:04:45.027Z,0.90
2022-09-28T12:07:20.408Z,1.27
2022-09-28T12:09:55.327Z,0.80
2022-09-28T12:12:29.069Z,1.30
2022-09-28T12:15:02.045Z,0.80
2022-09-28T12:17:35.530Z,1.00
2022-09-28T12:20:11.635Z,0.90
2022-09-28T12:22:45.399Z,0.80
2022-09-28T12:25:19.866Z,0.80
2022-09-28T12:27:53.982Z,0.83
2022-09-28T12:30:25.244Z,1.03
2022-09-28T12:32:58.206Z,0.90
2022-09-28T12:35:36.951Z,1.20
2022-09-28T12:38:27.889Z,0.90
2022-09-28T12:41:03.546Z,1.10
2022-09-28T12:43:55.132Z,0.90
2022-09-28T12:46:38.161Z,1.03
2022-09-28T12:52:30.052Z,1.10
2022-09-28T12:55:18.256Z,1.47
2022-09-28T12:58:07.470Z,1.30
2022-09-28T13:00:44.295Z,1.10
2022-09-28T13:03:31.635Z,1.50
2022-09-28T13:06:30.484Z,2.87
2022-09-28T13:09:21.753Z,1.10
2022-09-28T13:12:15.509Z,1.23
2022-09-28T13:15:18.742Z,0.90
2022-09-28T13:17:54.419Z,1.20
2022-09-28T13:20:32.172Z,0.77
2022-09-28T13:23:15.018Z,0.80
2022-09-28T13:25:49.119Z,1.10
2022-09-28T13:28:23.961Z,0.83
2022-09-28T13:33:33.736Z,1.00
2022-09-28T13:36:03.074Z,1.03
2022-09-28T13:38:52.473Z,0.70
2022-09-28T13:41:24.799Z,0.90
2022-09-28T13:44:25.607Z,1.27
2022-09-28T13:47:20.498Z,1.07
2022-09-28T13:50:03.293Z,1.00
2022-09-28T13:52:48.001Z,0.73
2022-09-28T13:55:25.999Z,0.70
2022-09-28T13:57:57.750Z,0.80
2022-09-28T14:00:30.203Z,0.87
2022-09-28T14:03:13.183Z,0.70
2022-09-28T14:05:53.603Z,0.97
2022-09-28T14:08:35.640Z,0.93
2022-09-28T14:11:40.176Z,0.87
2022-09-28T14:14:27.020Z,0.80
2022-09-28T14:17:16.576Z,1.23
2022-09-28T14:19:48.059Z,0.93
2022-09-28T14:22:26.089Z,0.80
2022-09-28T14:25:07.679Z,1.03
2022-09-28T14:27:55.429Z,1.00
2022-09-28T14:30:25.678Z,0.80
2022-09-28T14:32:58.559Z,1.23
2022-09-28T14:35:34.038Z,1.00
2022-09-28T14:38:24.468Z,0.90
2022-09-28T14:41:17.394Z,0.93
2022-09-28T14:44:08.014Z,0.80
2022-09-28T14:46:38.327Z,0.90
2022-09-28T14:49:24.881Z,0.83
2022-09-28T14:52:04.580Z,1.07
2022-09-28T14:54:54.960Z,0.90
2022-09-28T14:57:27.025Z,1.20
2022-09-28T14:59:59.461Z,0.90
2022-09-28T15:02:32.415Z,0.87
2022-09-28T15:05:11.575Z,1.00
2022-09-28T15:07:49.599Z,1.20
2022-09-28T15:10:27.901Z,1.20
2022-09-28T15:12:57.260Z,1.03
2022-09-28T15:15:36.469Z,2.00
2022-09-28T15:18:21.359Z,1.07
2022-09-28T15:20:50.635Z,1.20
2022-09-28T15:23:29.126Z,1.10
2022-09-28T15:25:57.379Z,0.93
2022-09-28T15:28:25.740Z,0.80
2022-09-28T15:31:00.606Z,1.40
2022-09-28T15:33:47.816Z,1.20
2022-09-28T15:36:21.151Z,2.73
2022-09-28T15:38:57.235Z,1.30
2022-09-28T15:41:27.152Z,1.47
2022-09-28T15:44:29.884Z,0.90
2022-09-28T15:47:13.853Z,1.07
2022-09-28T15:49:46.182Z,1.47
2022-09-28T15:52:27.334Z,2.13
2022-09-28T15:54:57.612Z,1.17
2022-09-28T15:57:38.030Z,1.00
2022-09-28T16:00:22.799Z,1.10
2022-09-28T16:03:02.228Z,1.43
2022-09-28T16:05:35.970Z,0.90
2022-09-28T16:08:05.689Z,1.00
2022-09-28T16:10:35.897Z,1.00
2022-09-28T16:13:17.813Z,1.00
2022-09-28T16:15:46.024Z,1.07
2022-09-28T16:18:20.435Z,1.10
2022-09-28T16:20:50.929Z,1.03
2022-09-28T16:23:24.247Z,1.10
2022-09-28T16:25:57.180Z,1.13
2022-09-28T16:28:51.750Z,1.37
2022-09-28T16:31:29.387Z,1.13
2022-09-28T16:34:01.120Z,1.00
2022-09-28T16:36:39.544Z,1.27
2022-09-28T16:39:07.450Z,0.90
2022-09-28T16:41:37.234Z,1.03
2022-09-28T16:44:05.208Z,1.30
2022-09-28T16:46:37.196Z,1.30
2022-09-28T16:49:07.015Z,1.00
2022-09-28T16:51:34.970Z,1.43
2022-09-28T16:54:32.633Z,1.10
2022-09-28T16:57:03.005Z,0.90
2022-09-28T16:59:31.203Z,1.00
2022-09-28T17:01:59.479Z,0.87
2022-09-28T17:04:28.011Z,0.93
2022-09-28T17:06:58.307Z,1.00
2022-09-28T17:09:26.254Z,1.10
2022-09-28T17:11:56.089Z,1.20
2022-09-28T17:14:25.857Z,1.13
2022-09-28T17:17:13.695Z,1.10
2022-09-28T17:19:42.991Z,1.10
2022-09-28T17:22:11.155Z,1.10
2022-09-28T17:24:39.854Z,1.07
2022-09-28T17:27:10.988Z,1.30
2022-09-28T17:29:40.292Z,1.10
2022-09-28T17:32:18.154Z,1.40
2022-09-28T17:34:55.862Z,1.10
2022-09-28T17:37:29.786Z,1.20
2022-09-28T17:39:57.758Z,1.30
2022-09-28T17:42:25.632Z,1.40
2022-09-28T17:44:56.217Z,1.43
2022-09-28T17:47:24.198Z,1.43
2022-09-28T17:49:53.738Z,1.60
2022-09-28T17:52:21.645Z,1.63
2022-09-28T17:54:49.891Z,3.17
2022-09-28T17:57:17.736Z,4.47
2022-09-28T17:59:45.793Z,3.87
2022-09-28T18:02:15.089Z,3.90
2022-09-28T18:04:52.772Z,4.77
2022-09-28T18:07:20.937Z,5.50
2022-09-28T18:09:49.174Z,7.03
2022-09-28T18:12:19.179Z,7.90
2022-09-28T18:14:47.287Z,9.70
2022-09-28T18:17:16.683Z,7.73
2022-09-28T18:19:45.164Z,5.00
2022-09-28T18:22:13.153Z,4.10
2022-09-28T18:24:41.152Z,5.27
2022-09-28T18:27:09.076Z,4.40
2022-09-28T18:29:37.109Z,6.10
2022-09-28T18:32:05.081Z,13.97
2022-09-28T18:34:36.477Z,9.37
2022-09-28T18:37:04.720Z,5.60
2022-09-28T18:39:32.621Z,5.53
2022-09-28T18:42:00.546Z,5.50
2022-09-28T18:44:28.484Z,11.30
2022-09-28T18:46:56.405Z,9.83
2022-09-28T18:49:24.831Z,12.77
2022-09-28T18:51:54.251Z,12.00
2022-09-28T18:54:22.681Z,8.43
2022-09-28T18:56:52.168Z,7.57
2022-09-28T18:59:20.138Z,6.30
2022-09-28T19:01:48.167Z,7.37
2022-09-28T19:04:16.248Z,6.60
2022-09-28T19:06:47.612Z,6.60
2022-09-28T19:09:20.445Z,4.07
2022-09-28T19:11:48.900Z,5.30
2022-09-28T19:14:17.634Z,5.37
2022-09-28T19:16:46.061Z,6.50
2022-09-28T19:19:15.835Z,14.83
2022-09-28T19:21:44.215Z,9.63
2022-09-28T19:24:14.877Z,12.10
2022-09-28T19:26:44.298Z,12.13
2022-09-28T19:29:12.410Z,9.47
2022-09-28T19:31:41.316Z,8.83
2022-09-28T19:34:11.869Z,5.87
2022-09-28T19:36:42.549Z,5.67
2022-09-28T19:39:14.563Z,5.87
2022-09-28T19:41:49.338Z,6.07
2022-09-28T19:44:23.152Z,6.30
2022-09-28T19:46:52.115Z,6.40
2022-09-28T19:49:22.059Z,6.40
2022-09-28T19:52:11.632Z,6.50
2022-09-28T19:54:39.622Z,6.43
2022-09-28T19:57:09.098Z,7.77
2022-09-28T19:59:37.112Z,7.10
2022-09-28T20:02:06.211Z,8.80
2022-09-28T20:04:34.509Z,8.30
2022-09-28T20:07:02.607Z,8.13
2022-09-28T20:09:30.700Z,7.80
2022-09-28T20:11:58.647Z,7.23
2022-09-28T20:14:33.987Z,7.93
2022-09-28T20:17:06.878Z,6.63
2022-09-28T20:19:34.866Z,6.60
2022-09-28T20:22:03.343Z,7.10
2022-09-28T20:24:32.123Z,7.30
2022-09-28T20:27:01.187Z,6.27
2022-09-28T20:29:33.142Z,6.30
2022-09-28T20:32:01.850Z,6.80
2022-09-28T20:34:29.829Z,6.80
2022-09-28T20:36:58.189Z,7.17
2022-09-28T20:39:26.316Z,8.57
2022-09-28T20:41:56.233Z,9.20
2022-09-28T20:44:24.263Z,8.50
2022-09-28T20:46:53.806Z,10.20
2022-09-28T20:49:21.870Z,7.97
2022-09-28T20:51:49.809Z,9.63
2022-09-28T20:54:17.752Z,10.67
2022-09-28T20:56:48.021Z,9.23
2022-09-28T20:59:16.319Z,10.20
2022-09-28T21:01:44.899Z,8.90
2022-09-28T21:04:14.247Z,7.40
2022-09-28T21:06:43.138Z,7.40
2022-09-28T21:09:12.367Z,7.23
2022-09-28T21:11:41.521Z,6.73
2022-09-28T21:14:10.521Z,6.93
2022-09-28T21:16:39.354Z,7.17
2022-09-28T21:19:07.573Z,6.97
2022-09-28T21:21:36.830Z,7.20
2022-09-28T21:24:05.017Z,7.80
2022-09-28T21:26:35.011Z,8.17
2022-09-28T21:29:05.453Z,7.77
2022-09-28T21:31:38.592Z,8.00
2022-09-28T21:34:07.143Z,7.33
2022-09-28T21:36:36.673Z,6.63
2022-09-28T21:39:09.523Z,6.80
2022-09-28T21:41:38.530Z,7.30
2022-09-28T21:44:06.894Z,7.83
2022-09-28T21:46:35.393Z,6.10
2022-09-28T21:49:04.239Z,5.80
2022-09-28T21:51:32.304Z,5.23
2022-09-28T21:54:01.707Z,7.60
2022-09-28T21:56:29.615Z,6.93
2022-09-28T21:58:57.539Z,6.87
2022-09-28T22:01:26.631Z,6.07
2022-09-28T22:03:56.216Z,5.90
2022-09-28T22:06:27.904Z,6.67
2022-09-28T22:08:56.304Z,6.20
2022-09-28T22:11:27.478Z,5.60
2022-09-28T22:13:57.623Z,5.30
2022-09-28T22:16:27.558Z,4.70
2022-09-28T22:18:55.708Z,4.30
2022-09-28T22:21:25.460Z,4.30
2022-09-28T22:23:53.827Z,4.50
2022-09-28T22:26:23.504Z,3.60
2022-09-28T22:28:54.563Z,3.10
2022-09-28T22:31:25.019Z,3.60
2022-09-28T22:33:53.243Z,3.70
2022-09-28T22:36:21.296Z,3.57
2022-09-28T22:38:50.080Z,3.90
2022-09-28T22:41:20.773Z,3.40
2022-09-28T22:43:49.685Z,4.80
2022-09-28T22:46:21.425Z,4.50
2022-09-28T22:48:50.767Z,3.77
2022-09-28T22:51:19.209Z,3.63
2022-09-28T22:53:47.159Z,4.70
2022-09-28T22:56:18.720Z,4.60
2022-09-28T22:58:47.533Z,4.30
2022-09-28T23:01:19.122Z,4.27
2022-09-28T23:03:47.739Z,4.37
2022-09-28T23:06:18.235Z,4.20
2022-09-28T23:08:47.324Z,3.60
2022-09-28T23:11:15.563Z,4.50
2022-09-28T23:13:43.812Z,4.30
2022-09-28T23:16:13.053Z,4.20
2022-09-28T23:18:42.514Z,3.80
2022-09-28T23:21:13.351Z,4.50
2022-09-28T23:23:41.316Z,4.33
2022-09-28T23:26:13.653Z,4.90
2022-09-28T23:28:41.831Z,3.70
2022-09-28T23:31:11.209Z,4.30
2022-09-28T23:33:39.120Z,4.80
2022-09-28T23:36:09.483Z,4.50
2022-09-28T23:38:37.657Z,4.53
2022-09-28T23:41:05.856Z,4.70
2022-09-28T23:43:33.860Z,5.27
2022-09-28T23:46:01.875Z,4.07
2022-09-28T23:48:30.218Z,4.47
2022-09-28T23:50:58.217Z,4.37
2022-09-28T23:53:27.804Z,4.47
2022-09-28T23:55:55.989Z,4.17
2022-09-28T23:58:24.473Z,4.80
